< Typhoon 201104 2011 Season Typhoon 201106 >
Typhoon 201105 (MEARI)
General InformationTrack Information on Google MapsDetailed Wind InformationAccess Analytics MapList of All Images || NewsDisaster Info.WeblogTrackbackTyphoon FrontTwiphoonTyphoon Now!Typhoon ImaginationResourceGoogle EarthGE AnimationAtom FeedGeoJSON
Detalied Best Track (Time Zone = UTC)
Year Month Day Hour Lat. Long. Pressure (hPa) Wind (kt) Class Image Chart
2011 6 20 18 11.0 133.4 1002 0 2 Image Chart
2011 6 21 00 11.4 132.4 1002 0 2 Image Chart
2011 6 21 06 11.8 131.4 1002 0 2 Image Chart
2011 6 21 12 12.0 130.5 1000 0 2 Image Chart
2011 6 21 18 12.5 129.7 1000 0 2 Image Chart
2011 6 22 00 13.2 129.3 998 35 3 Image Chart
2011 6 22 06 14.0 128.9 998 35 3 Image Chart
2011 6 22 12 14.8 128.7 994 40 3 Image Chart
2011 6 22 18 15.6 128.4 990 45 3 Image Chart
2011 6 23 00 16.6 127.9 985 50 4 Image Chart
2011 6 23 06 17.4 127.4 985 50 4 Image Chart
2011 6 23 12 18.2 126.9 985 50 4 Image Chart
2011 6 23 18 19.3 126.5 985 50 4 Image Chart
2011 6 24 00 20.8 126.0 980 55 4 Image Chart
2011 6 24 06 22.8 125.3 980 55 4 Image Chart
2011 6 24 09 23.6 125.0 975 60 4 Image Chart
2011 6 24 12 24.4 124.5 975 60 4 Image Chart
2011 6 24 15 24.9 124.1 975 60 4 Image Chart
2011 6 24 18 25.5 123.8 975 60 4 Image Chart
2011 6 24 21 26.0 123.6 975 60 4 Image Chart
2011 6 25 00 26.6 123.3 975 60 4 Image Chart
2011 6 25 06 27.7 123.3 975 60 4 Image Chart
2011 6 25 12 29.2 124.1 980 55 4 Image Chart
2011 6 25 18 32.1 124.7 980 55 4 Image Chart
2011 6 26 00 35.1 124.4 980 55 4 Image Chart
2011 6 26 06 36.8 123.0 980 55 4 Image Chart
2011 6 26 12 37.1 122.8 980 55 4 Image Chart
2011 6 26 18 37.5 123.0 985 50 4 Image Chart
2011 6 27 00 38.5 124.3 990 45 3 Image Chart
2011 6 27 06 39.4 125.3 996 0 6 Image Chart
Japan Meteorological Agency Best Track Data | Correction Date : 2011-07-28
< Typhoon 201104 2011 Season Typhoon 201106 >

Help